createdAt,value
2018-11-05T00:00:27.044Z,7.43
2018-11-05T00:03:01.097Z,5.83
2018-11-05T00:05:35.290Z,8.43
2018-11-05T00:08:09.108Z,7.00
2018-11-05T00:10:43.399Z,7.80
2018-11-05T00:13:17.306Z,9.80
2018-11-05T00:15:51.114Z,8.97
2018-11-05T00:18:25.108Z,5.97
2018-11-05T00:20:59.114Z,7.83
2018-11-05T00:23:32.846Z,7.47
2018-11-05T00:26:06.897Z,6.87
2018-11-05T00:28:40.885Z,11.83
2018-11-05T00:31:14.957Z,6.80
2018-11-05T00:33:48.766Z,8.43
2018-11-05T00:36:22.793Z,7.60
2018-11-05T00:38:56.835Z,7.47
2018-11-05T00:41:31.253Z,7.43
2018-11-05T00:44:05.395Z,6.23
2018-11-05T00:46:39.239Z,9.10
2018-11-05T00:49:13.369Z,7.90
2018-11-05T00:51:47.304Z,7.33
2018-11-05T00:54:21.606Z,8.73
2018-11-05T00:56:55.551Z,5.83
2018-11-05T00:59:29.519Z,8.03
2018-11-05T01:02:03.417Z,7.50
2018-11-05T01:04:38.557Z,8.30
2018-11-05T01:07:12.460Z,6.77
2018-11-05T01:09:46.401Z,9.83
2018-11-05T01:12:20.271Z,8.20
2018-11-05T01:14:54.700Z,5.87
2018-11-05T01:17:28.494Z,7.60
2018-11-05T01:20:02.463Z,7.03
2018-11-05T01:22:36.756Z,8.70
2018-11-05T01:25:10.886Z,6.60
2018-11-05T01:27:44.833Z,7.33
2018-11-05T01:30:18.831Z,6.13
2018-11-05T01:32:52.634Z,5.73
2018-11-05T01:35:29.640Z,7.70
2018-11-05T01:38:03.695Z,7.87
2018-11-05T01:40:37.663Z,7.10
2018-11-05T01:43:11.767Z,7.13
2018-11-05T01:45:45.589Z,5.80
2018-11-05T01:48:20.564Z,7.60
2018-11-05T01:50:54.479Z,8.37
2018-11-05T01:53:28.190Z,9.50
2018-11-05T01:56:02.116Z,6.30
2018-11-05T01:58:36.131Z,10.03
2018-11-05T02:01:09.946Z,7.83
2018-11-05T02:03:43.870Z,6.13
2018-11-05T02:06:17.904Z,6.50
2018-11-05T02:08:51.679Z,6.77
2018-11-05T02:11:25.649Z,6.33
2018-11-05T02:13:59.713Z,6.53
2018-11-05T02:16:33.673Z,6.50
2018-11-05T02:19:07.542Z,7.10
2018-11-05T02:21:41.571Z,4.27
2018-11-05T02:24:16.390Z,5.87
2018-11-05T02:26:50.275Z,6.20
2018-11-05T02:29:24.139Z,5.20
2018-11-05T02:31:57.976Z,4.13
2018-11-05T02:34:32.058Z,7.97
2018-11-05T02:37:06.091Z,5.40
2018-11-05T02:39:39.878Z,8.40
2018-11-05T02:42:13.823Z,8.63
2018-11-05T02:44:47.756Z,6.47
2018-11-05T02:47:21.749Z,5.57
2018-11-05T02:49:55.584Z,6.90
2018-11-05T02:52:29.692Z,4.37
2018-11-05T02:55:03.835Z,6.43
2018-11-05T02:57:38.177Z,4.47
2018-11-05T03:00:14.428Z,6.50
2018-11-05T03:02:48.244Z,5.27
2018-11-05T03:05:22.217Z,7.47
2018-11-05T03:07:56.012Z,6.80
2018-11-05T03:10:34.680Z,7.13
2018-11-05T03:13:08.692Z,4.70
2018-11-05T03:15:42.487Z,5.17
2018-11-05T03:18:16.377Z,4.57
2018-11-05T03:20:50.330Z,9.03
2018-11-05T03:23:24.263Z,6.13
2018-11-05T03:25:58.119Z,6.07
2018-11-05T03:28:32.207Z,5.20
2018-11-05T03:31:05.987Z,5.67
2018-11-05T03:33:39.958Z,6.03
2018-11-05T03:36:13.818Z,6.47
2018-11-05T03:38:47.724Z,4.07
2018-11-05T03:41:22.195Z,4.50
2018-11-05T03:43:56.129Z,7.63
2018-11-05T03:46:30.218Z,7.60
2018-11-05T03:49:04.242Z,5.90
2018-11-05T03:51:38.275Z,7.17
2018-11-05T03:54:12.175Z,5.47
2018-11-05T03:56:46.214Z,7.63
2018-11-05T03:59:20.096Z,4.93
2018-11-05T04:01:53.929Z,4.63
2018-11-05T04:04:27.996Z,6.77
2018-11-05T04:07:01.830Z,4.13
2018-11-05T04:09:35.875Z,5.73
2018-11-05T04:12:09.773Z,5.87
2018-11-05T04:14:43.653Z,3.27
2018-11-05T04:17:17.593Z,4.47
2018-11-05T04:19:51.537Z,5.83
2018-11-05T04:22:25.246Z,6.10
2018-11-05T04:24:59.212Z,5.07
2018-11-05T04:27:33.047Z,4.17
2018-11-05T04:30:08.364Z,4.53
2018-11-05T04:32:42.443Z,4.13
2018-11-05T04:35:16.290Z,2.87
2018-11-05T04:37:50.464Z,4.57
2018-11-05T04:40:24.506Z,4.40
2018-11-05T04:42:58.314Z,3.67
2018-11-05T04:45:32.492Z,3.90
2018-11-05T04:48:06.491Z,7.40
2018-11-05T04:50:40.314Z,5.13
2018-11-05T04:53:14.283Z,4.37
2018-11-05T04:55:48.302Z,3.70
2018-11-05T04:58:22.282Z,6.10
2018-11-05T05:00:56.105Z,6.83
2018-11-05T05:03:29.961Z,6.67
2018-11-05T05:06:03.743Z,5.90
2018-11-05T05:08:37.650Z,4.50
2018-11-05T05:11:11.628Z,5.77
2018-11-05T05:13:45.644Z,5.60
2018-11-05T05:16:19.593Z,6.63
2018-11-05T05:18:53.444Z,3.50
2018-11-05T05:21:27.431Z,8.93
2018-11-05T05:24:01.582Z,6.13
2018-11-05T05:26:35.491Z,5.30
2018-11-05T05:29:09.467Z,5.00
2018-11-05T05:31:43.480Z,6.33
2018-11-05T05:34:17.288Z,6.97
2018-11-05T05:36:51.331Z,6.03
2018-11-05T05:39:25.024Z,7.80
2018-11-05T05:41:58.899Z,8.63
2018-11-05T05:44:32.940Z,6.93
2018-11-05T05:47:06.887Z,6.23
2018-11-05T05:49:41.191Z,7.17
2018-11-05T05:52:15.479Z,6.20
2018-11-05T05:54:49.606Z,7.07
2018-11-05T05:57:23.629Z,8.50
2018-11-05T05:59:57.909Z,8.37
2018-11-05T06:02:31.791Z,4.40
2018-11-05T06:05:06.538Z,4.80
2018-11-05T06:07:41.214Z,5.97
2018-11-05T06:10:15.799Z,7.27
2018-11-05T06:12:49.673Z,4.60
2018-11-05T06:15:23.528Z,7.80
2018-11-05T06:17:59.421Z,9.17
2018-11-05T06:20:33.419Z,5.20
2018-11-05T06:23:07.278Z,6.90
2018-11-05T06:25:41.322Z,5.07
2018-11-05T06:28:15.317Z,7.43
2018-11-05T06:30:49.321Z,6.40
2018-11-05T06:33:24.760Z,5.73
2018-11-05T06:35:58.803Z,9.40
2018-11-05T06:38:32.871Z,10.53
2018-11-05T06:41:07.295Z,8.73
2018-11-05T06:43:41.458Z,7.73
2018-11-05T06:46:15.269Z,9.43
2018-11-05T06:48:49.113Z,9.17
2018-11-05T06:51:23.138Z,7.30
2018-11-05T06:53:56.943Z,7.07
2018-11-05T06:56:30.761Z,5.97
2018-11-05T06:59:04.851Z,12.70
2018-11-05T07:01:42.016Z,10.20
2018-11-05T07:04:15.871Z,8.20
2018-11-05T07:06:49.785Z,6.33
2018-11-05T07:09:23.854Z,10.43
2018-11-05T07:11:57.889Z,12.90
2018-11-05T07:14:31.776Z,9.50
2018-11-05T07:17:05.707Z,10.43
2018-11-05T07:19:39.582Z,9.00
2018-11-05T07:22:13.607Z,12.67
2018-11-05T07:24:47.645Z,10.70
2018-11-05T07:27:21.506Z,11.23
2018-11-05T07:29:55.476Z,11.37
2018-11-05T07:32:29.552Z,10.40
2018-11-05T07:35:03.603Z,11.23
2018-11-05T07:37:37.589Z,10.60
2018-11-05T07:40:12.570Z,12.87
2018-11-05T07:42:46.457Z,15.50
2018-11-05T07:45:23.499Z,9.67
2018-11-05T07:47:57.366Z,7.40
2018-11-05T07:50:31.240Z,11.57
2018-11-05T07:53:05.453Z,10.10
2018-11-05T07:55:39.491Z,9.23
2018-11-05T07:58:13.324Z,13.13
2018-11-05T08:00:49.271Z,9.37
2018-11-05T08:03:23.185Z,12.23
2018-11-05T08:05:57.560Z,11.50
2018-11-05T08:08:31.455Z,9.83
2018-11-05T08:11:05.442Z,12.57
2018-11-05T08:13:39.245Z,9.97
2018-11-05T08:16:13.146Z,10.53
2018-11-05T08:18:47.403Z,9.40
2018-11-05T08:21:21.363Z,10.40
2018-11-05T08:23:55.338Z,10.77
2018-11-05T08:26:29.127Z,10.37
2018-11-05T08:29:03.345Z,9.37
2018-11-05T08:31:37.297Z,9.47
2018-11-05T08:34:11.217Z,10.60
2018-11-05T08:36:45.022Z,8.57
2018-11-05T08:39:19.022Z,11.00
2018-11-05T08:41:52.841Z,12.20
2018-11-05T08:44:26.794Z,9.30
2018-11-05T08:47:00.764Z,8.73
2018-11-05T08:49:34.719Z,9.47
2018-11-05T08:52:08.941Z,8.27
2018-11-05T08:54:42.617Z,9.47
2018-11-05T08:57:16.705Z,11.37
2018-11-05T08:59:50.655Z,7.57
2018-11-05T09:02:24.452Z,8.03
2018-11-05T09:04:58.544Z,8.67
2018-11-05T09:07:32.439Z,6.97
2018-11-05T09:10:06.787Z,8.27
2018-11-05T09:12:40.662Z,7.83
2018-11-05T09:15:15.978Z,7.97
2018-11-05T09:17:49.955Z,5.77
2018-11-05T09:20:24.039Z,6.87
2018-11-05T09:22:58.072Z,5.80
2018-11-05T09:25:31.998Z,5.87
2018-11-05T09:28:06.293Z,6.50
2018-11-05T09:30:40.228Z,5.73
2018-11-05T09:33:14.045Z,5.03
2018-11-05T09:35:47.778Z,6.13
2018-11-05T09:38:21.695Z,7.13
2018-11-05T09:40:55.590Z,5.87
2018-11-05T09:43:29.530Z,4.77
2018-11-05T09:46:03.454Z,4.83
2018-11-05T09:48:37.490Z,5.13
2018-11-05T09:51:11.502Z,5.13
2018-11-05T09:53:45.450Z,5.23
2018-11-05T09:56:19.431Z,5.37
2018-11-05T09:58:53.663Z,4.50
2018-11-05T10:01:27.472Z,4.93
2018-11-05T10:04:01.339Z,5.30
2018-11-05T10:06:35.163Z,4.93
2018-11-05T10:09:10.057Z,4.53
2018-11-05T10:11:44.154Z,4.30
2018-11-05T10:14:18.092Z,3.67
2018-11-05T10:16:52.089Z,3.57
2018-11-05T10:19:25.899Z,4.73
2018-11-05T10:21:59.706Z,3.57
2018-11-05T10:24:33.594Z,3.40
2018-11-05T10:27:07.317Z,4.63
2018-11-05T10:29:41.278Z,4.20
2018-11-05T10:32:14.934Z,4.87
2018-11-05T10:34:49.689Z,4.27
2018-11-05T10:37:34.691Z,4.90
2018-11-05T10:40:11.155Z,3.17
2018-11-05T10:42:45.776Z,4.47
2018-11-05T10:45:19.805Z,4.83
2018-11-05T10:47:53.574Z,3.83
2018-11-05T10:50:27.362Z,3.77
2018-11-05T10:53:01.343Z,4.60
2018-11-05T10:55:35.102Z,4.47
2018-11-05T10:58:09.245Z,3.43
2018-11-05T11:00:48.138Z,3.33
2018-11-05T11:03:22.003Z,4.00
2018-11-05T11:05:55.712Z,5.20
2018-11-05T11:08:29.840Z,4.77
2018-11-05T11:11:03.754Z,5.40
2018-11-05T11:13:37.743Z,5.53
2018-11-05T11:16:11.534Z,3.67
2018-11-05T11:18:45.349Z,3.83
2018-11-05T11:21:19.216Z,4.00
2018-11-05T11:23:53.077Z,4.77
2018-11-05T11:26:27.102Z,3.43
2018-11-05T11:29:01.163Z,4.40
2018-11-05T11:31:34.923Z,4.80
2018-11-05T11:34:08.783Z,3.67
2018-11-05T11:36:42.789Z,5.33
2018-11-05T11:39:16.543Z,3.43
2018-11-05T11:41:50.538Z,4.07
2018-11-05T11:44:24.439Z,4.07
2018-11-05T11:46:58.352Z,4.67
2018-11-05T11:49:32.097Z,4.37
2018-11-05T11:52:06.283Z,6.07
2018-11-05T11:54:40.070Z,3.03
2018-11-05T11:57:14.158Z,4.20
2018-11-05T11:59:48.133Z,3.30
2018-11-05T12:02:22.027Z,4.67
2018-11-05T12:04:56.841Z,4.80
2018-11-05T12:07:30.669Z,5.40
2018-11-05T12:10:05.477Z,4.50
2018-11-05T12:12:39.430Z,3.50
2018-11-05T12:15:13.964Z,3.47
2018-11-05T12:17:48.964Z,4.17
2018-11-05T12:20:24.265Z,4.50
2018-11-05T12:22:58.322Z,4.17
2018-11-05T12:25:32.413Z,4.40
2018-11-05T12:28:06.460Z,4.40
2018-11-05T12:30:40.390Z,5.23
2018-11-05T12:33:14.448Z,6.23
2018-11-05T12:35:48.255Z,4.50
2018-11-05T12:38:22.131Z,5.50
2018-11-05T12:40:56.136Z,3.97
2018-11-05T12:43:29.954Z,6.60
2018-11-05T12:46:03.868Z,3.77
2018-11-05T12:48:37.860Z,2.87
2018-11-05T12:51:11.740Z,4.20
2018-11-05T12:53:45.650Z,4.83
2018-11-05T12:56:19.464Z,3.70
2018-11-05T12:58:53.360Z,4.23
2018-11-05T13:01:27.555Z,3.53
2018-11-05T13:04:01.348Z,3.40
2018-11-05T13:06:35.358Z,4.43
2018-11-05T13:09:09.801Z,4.00
2018-11-05T13:11:43.579Z,3.57
2018-11-05T13:14:17.617Z,4.93
2018-11-05T13:16:51.588Z,5.20
2018-11-05T13:19:25.480Z,3.23
2018-11-05T13:21:59.448Z,4.17
2018-11-05T13:24:33.282Z,4.13
2018-11-05T13:27:07.255Z,4.10
2018-11-05T13:29:41.008Z,3.63
2018-11-05T13:32:15.129Z,5.43
2018-11-05T13:34:48.863Z,4.50
2018-11-05T13:37:23.168Z,3.73
2018-11-05T13:39:56.840Z,3.20
2018-11-05T13:42:30.861Z,3.40
2018-11-05T13:45:05.628Z,3.00
2018-11-05T13:47:40.394Z,2.60
2018-11-05T13:50:14.338Z,3.10
2018-11-05T13:52:49.467Z,3.93
2018-11-05T13:55:23.365Z,3.97
2018-11-05T13:57:57.190Z,2.87
2018-11-05T14:00:30.889Z,3.83
2018-11-05T14:03:04.722Z,3.70
2018-11-05T14:05:38.762Z,4.37
2018-11-05T14:08:12.531Z,3.57
2018-11-05T14:10:46.660Z,3.23
2018-11-05T14:13:20.456Z,2.83
2018-11-05T14:15:54.288Z,3.33
2018-11-05T14:18:28.121Z,2.73
2018-11-05T14:21:02.976Z,2.60
2018-11-05T14:23:36.881Z,2.60
2018-11-05T14:26:10.815Z,2.40
2018-11-05T14:28:44.864Z,3.47
2018-11-05T14:31:18.577Z,2.47
2018-11-05T14:33:53.203Z,2.90
2018-11-05T14:36:27.041Z,3.27
2018-11-05T14:39:00.952Z,3.27
2018-11-05T14:41:34.851Z,3.47
2018-11-05T14:44:08.749Z,2.83
2018-11-05T14:46:42.730Z,3.63
2018-11-05T14:49:16.896Z,3.40
2018-11-05T14:51:50.603Z,3.17
2018-11-05T14:54:24.572Z,3.40
2018-11-05T14:56:58.323Z,3.83
2018-11-05T14:59:32.263Z,3.53
2018-11-05T15:02:11.649Z,3.60
2018-11-05T15:04:45.654Z,4.40
2018-11-05T15:07:19.673Z,3.50
2018-11-05T15:09:53.589Z,3.03
2018-11-05T15:12:27.771Z,3.20
2018-11-05T15:15:01.608Z,3.73
2018-11-05T15:17:35.538Z,3.90
2018-11-05T15:20:11.100Z,3.47
2018-11-05T15:22:44.809Z,4.17
2018-11-05T15:25:19.343Z,5.17
2018-11-05T15:27:53.257Z,3.90
2018-11-05T15:30:27.182Z,3.40
2018-11-05T15:33:01.347Z,5.33
2018-11-05T15:35:35.128Z,5.77
2018-11-05T15:38:09.104Z,3.70
2018-11-05T15:40:42.932Z,4.10
2018-11-05T15:43:16.926Z,4.13
2018-11-05T15:45:50.742Z,4.27
2018-11-05T15:48:24.434Z,3.70
2018-11-05T15:50:58.425Z,4.03
2018-11-05T15:53:32.628Z,4.60
2018-11-05T15:56:06.488Z,3.87
2018-11-05T15:58:40.399Z,3.73
2018-11-05T16:01:14.372Z,4.57
2018-11-05T16:03:48.520Z,3.90
2018-11-05T16:06:22.487Z,4.13
2018-11-05T16:08:56.438Z,6.97
2018-11-05T16:11:30.399Z,5.50
2018-11-05T16:14:04.281Z,4.73
2018-11-05T16:16:38.167Z,4.73
2018-11-05T16:19:12.227Z,4.27
2018-11-05T16:21:45.958Z,4.53
2018-11-05T16:24:20.131Z,3.83
2018-11-05T16:26:54.084Z,3.60
2018-11-05T16:29:27.969Z,3.67
2018-11-05T16:32:03.350Z,4.37
2018-11-05T16:34:37.229Z,3.63
2018-11-05T16:37:11.198Z,5.00
2018-11-05T16:39:45.152Z,4.87
2018-11-05T16:42:19.049Z,4.10
2018-11-05T16:44:52.985Z,4.70
2018-11-05T16:47:26.809Z,4.83
2018-11-05T16:50:00.542Z,3.60
2018-11-05T16:52:34.487Z,3.87
2018-11-05T16:55:09.252Z,5.13
2018-11-05T16:57:43.834Z,3.93
2018-11-05T17:00:18.047Z,3.20
2018-11-05T17:02:52.020Z,3.70
2018-11-05T17:05:25.668Z,3.00
2018-11-05T17:07:59.691Z,4.23
2018-11-05T17:10:33.703Z,3.07
2018-11-05T17:13:07.503Z,2.50
2018-11-05T17:15:41.404Z,3.10
2018-11-05T17:18:15.984Z,2.73
2018-11-05T17:20:49.999Z,2.70
2018-11-05T17:23:24.101Z,2.60
2018-11-05T17:25:58.809Z,2.50
2018-11-05T17:28:39.780Z,2.80
2018-11-05T17:31:15.036Z,2.57
2018-11-05T17:36:47.459Z,3.33
2018-11-05T17:39:22.552Z,3.57
2018-11-05T17:42:01.476Z,3.47
2018-11-05T17:44:36.515Z,3.97
2018-11-05T17:47:25.771Z,3.17
2018-11-05T17:50:00.639Z,5.83
2018-11-05T17:52:34.820Z,5.30
2018-11-05T17:55:09.532Z,3.37
2018-11-05T17:57:44.512Z,2.73
2018-11-05T18:00:22.810Z,2.73
2018-11-05T18:02:56.898Z,3.27
2018-11-05T18:05:30.854Z,3.67
2018-11-05T18:08:05.247Z,4.50
2018-11-05T18:10:44.927Z,2.43
2018-11-05T18:13:20.383Z,2.90
2018-11-05T18:15:54.694Z,2.60
2018-11-05T18:18:28.958Z,5.13
2018-11-05T18:21:03.353Z,3.40
2018-11-05T18:26:17.849Z,2.63
2018-11-05T18:30:59.204Z,3.57
2018-11-05T18:36:14.101Z,4.73
2018-11-05T18:46:38.274Z,3.13
2018-11-05T18:49:13.757Z,4.07
2018-11-05T18:53:02.577Z,3.50
2018-11-05T18:58:39.372Z,4.67
2018-11-05T19:01:13.634Z,4.30
2018-11-05T19:03:48.273Z,5.07
2018-11-05T19:06:22.175Z,13.70
2018-11-05T19:08:56.299Z,4.50
2018-11-05T19:11:30.720Z,3.27
2018-11-05T19:14:05.096Z,3.20
2018-11-05T19:16:39.076Z,3.50
2018-11-05T19:19:13.125Z,4.33
2018-11-05T19:21:47.866Z,3.50
2018-11-05T19:24:21.956Z,5.13
2018-11-05T19:26:55.858Z,4.13
2018-11-05T19:29:30.062Z,3.13
2018-11-05T19:32:05.416Z,5.17
2018-11-05T19:34:41.572Z,9.10
2018-11-05T19:37:15.413Z,4.30
2018-11-05T19:39:49.296Z,3.90
2018-11-05T19:42:23.556Z,2.73
2018-11-05T19:47:40.431Z,3.93
2018-11-05T19:50:16.053Z,4.27
2018-11-05T19:52:50.982Z,4.40
2018-11-05T19:55:25.224Z,5.67
2018-11-05T19:57:59.396Z,3.30
2018-11-05T20:00:33.824Z,5.53
2018-11-05T20:03:07.844Z,5.10
2018-11-05T20:05:42.783Z,7.77
2018-11-05T20:08:19.635Z,3.20
2018-11-05T20:10:53.877Z,3.30
2018-11-05T20:13:28.131Z,3.13
2018-11-05T20:16:02.349Z,3.87
2018-11-05T20:18:37.205Z,3.80
2018-11-05T20:21:11.597Z,4.20
2018-11-05T20:23:45.869Z,3.60
2018-11-05T20:26:19.930Z,3.43
2018-11-05T20:28:54.031Z,3.90
2018-11-05T20:31:31.451Z,3.60
2018-11-05T20:34:09.893Z,4.27
2018-11-05T20:36:43.812Z,4.67
2018-11-05T20:39:17.906Z,4.40
2018-11-05T20:41:51.935Z,4.00
2018-11-05T20:44:27.200Z,3.70
2018-11-05T20:47:02.401Z,2.80
2018-11-05T20:49:39.544Z,3.07
2018-11-05T20:52:14.102Z,3.20
2018-11-05T20:54:48.107Z,3.67
2018-11-05T20:57:22.223Z,3.87
2018-11-05T20:59:56.471Z,5.90
2018-11-05T21:02:30.491Z,4.23
2018-11-05T21:05:04.368Z,3.50
2018-11-05T21:07:38.936Z,3.50
2018-11-05T21:10:13.799Z,3.43
2018-11-05T21:12:47.851Z,3.03
2018-11-05T21:15:24.106Z,3.50
2018-11-05T21:17:58.093Z,3.03
2018-11-05T21:20:31.869Z,3.07
2018-11-05T21:23:05.994Z,3.93
2018-11-05T21:25:40.094Z,5.03
2018-11-05T21:28:15.019Z,3.60
2018-11-05T21:30:49.069Z,4.10
2018-11-05T21:33:23.082Z,3.73
2018-11-05T21:35:57.045Z,3.67
2018-11-05T21:38:31.401Z,4.17
2018-11-05T21:41:05.554Z,3.67
2018-11-05T21:43:39.612Z,3.70
2018-11-05T21:46:13.520Z,4.13
2018-11-05T21:48:47.304Z,4.73
2018-11-05T21:51:21.192Z,3.30
2018-11-05T21:53:55.251Z,3.17
2018-11-05T21:56:29.034Z,4.63
2018-11-05T21:59:02.993Z,4.07
2018-11-05T22:01:36.959Z,3.00
2018-11-05T22:04:10.857Z,3.33
2018-11-05T22:06:44.863Z,3.10
2018-11-05T22:09:18.659Z,3.07
2018-11-05T22:11:52.724Z,3.50
2018-11-05T22:14:27.322Z,3.67
2018-11-05T22:17:01.786Z,4.03
2018-11-05T22:19:36.472Z,4.10
2018-11-05T22:22:10.395Z,3.20
2018-11-05T22:24:44.423Z,2.87
2018-11-05T22:27:18.267Z,3.20
2018-11-05T22:29:52.395Z,3.00
2018-11-05T22:32:26.226Z,3.10
2018-11-05T22:35:01.039Z,2.97
2018-11-05T22:37:35.126Z,2.97
2018-11-05T22:40:10.793Z,2.77
2018-11-05T22:42:44.798Z,3.53
2018-11-05T22:45:18.686Z,3.30
2018-11-05T22:47:53.284Z,2.87
2018-11-05T22:50:27.307Z,3.03
2018-11-05T22:53:01.475Z,2.63
2018-11-05T22:55:35.304Z,3.03
2018-11-05T22:58:09.115Z,3.33
2018-11-05T23:00:49.625Z,2.93
2018-11-05T23:03:30.713Z,2.83
2018-11-05T23:06:04.832Z,3.20
2018-11-05T23:08:39.392Z,3.07
2018-11-05T23:11:14.722Z,2.97
2018-11-05T23:13:48.610Z,3.60
2018-11-05T23:16:22.674Z,3.17
2018-11-05T23:18:56.759Z,3.10
2018-11-05T23:21:30.811Z,3.60
2018-11-05T23:24:04.732Z,2.70
2018-11-05T23:26:38.824Z,3.27
2018-11-05T23:29:13.164Z,3.10
2018-11-05T23:31:48.253Z,3.40
2018-11-05T23:34:22.094Z,3.67
2018-11-05T23:36:56.062Z,3.37
2018-11-05T23:39:29.923Z,4.53
2018-11-05T23:42:03.852Z,3.87
2018-11-05T23:44:37.653Z,2.67
2018-11-05T23:47:11.695Z,3.30
2018-11-05T23:49:45.585Z,3.10
2018-11-05T23:52:19.482Z,3.00
2018-11-05T23:54:53.337Z,2.60
2018-11-05T23:57:27.252Z,3.50
